Taupo (NZAP)

Aerodrome — Elev 1335
New Zealand
S038.44.22.999 E176.05.03.998
Loading chart...

Current Weather

NZAP 210100Z 04010KT 360V060 14KM -RA SCT023 BKN044 BKN050 11/10 Q1007 RERA RMK

Published 26 minutes ago

Airport Activity

Loading chart...
Loading chart...

Positions

CallsignRadio Name / Freq / Voice Room / TypeFrequencyVoice RoomType
NZCH-B_CTR Bay Approach
119.500
nzch-b_ctr
119.500nzch-b_ctr

Charts